createdAt,value
2022-10-04T00:00:45.816Z,16.39
2022-10-04T00:04:01.412Z,16.40
2022-10-04T00:06:47.620Z,16.41
2022-10-04T00:09:43.662Z,16.42
2022-10-04T00:12:44.989Z,16.42
2022-10-04T00:15:53.336Z,16.43
2022-10-04T00:18:45.189Z,16.42
2022-10-04T00:21:21.935Z,16.42
2022-10-04T00:24:29.640Z,16.43
2022-10-04T00:27:21.589Z,16.44
2022-10-04T00:34:47.853Z,16.43
2022-10-04T00:41:25.448Z,16.42
2022-10-04T00:44:38.238Z,16.42
2022-10-04T00:52:26.490Z,16.43
2022-10-04T00:55:04.886Z,16.43
2022-10-04T00:57:59.128Z,16.43
2022-10-04T01:00:34.817Z,16.43
2022-10-04T01:03:27.482Z,16.43
2022-10-04T01:06:05.085Z,16.43
2022-10-04T01:09:01.162Z,16.44
2022-10-04T01:12:14.239Z,16.44
2022-10-04T01:14:57.536Z,16.45
2022-10-04T01:18:09.430Z,16.48
2022-10-04T01:21:22.836Z,16.49
2022-10-04T01:24:35.161Z,16.50
2022-10-04T01:27:43.776Z,16.52
2022-10-04T01:30:50.770Z,16.52
2022-10-04T01:33:37.626Z,16.54
2022-10-04T01:36:46.930Z,16.53
2022-10-04T01:39:55.451Z,16.52
2022-10-04T01:42:59.767Z,16.51
2022-10-04T01:54:23.803Z,16.51
2022-10-04T01:57:06.865Z,16.51
2022-10-04T02:00:10.365Z,16.53
2022-10-04T02:03:01.176Z,16.54
2022-10-04T02:06:02.259Z,16.54
2022-10-04T02:08:57.271Z,16.54
2022-10-04T02:12:06.576Z,16.54
2022-10-04T02:15:15.528Z,16.54
2022-10-04T02:18:24.039Z,16.52
2022-10-04T02:21:15.392Z,16.53
2022-10-04T02:24:12.891Z,16.52
2022-10-04T02:27:02.231Z,16.53
2022-10-04T02:29:50.139Z,16.53
2022-10-04T02:32:59.216Z,16.52
2022-10-04T02:36:08.106Z,16.52
2022-10-04T02:39:23.237Z,16.54
2022-10-04T02:41:56.033Z,16.54
2022-10-04T02:44:28.712Z,16.52
2022-10-04T02:47:12.557Z,16.53
2022-10-04T02:49:54.647Z,16.51
2022-10-04T02:52:45.718Z,16.51
2022-10-04T02:56:02.035Z,16.50
2022-10-04T02:59:15.881Z,16.50
2022-10-04T03:02:29.462Z,16.51
2022-10-04T03:05:05.566Z,16.51
2022-10-04T03:08:12.811Z,16.52
2022-10-04T03:15:23.055Z,16.53
2022-10-04T03:18:31.805Z,16.52
2022-10-04T03:22:19.560Z,16.52
2022-10-04T03:25:29.846Z,16.53
2022-10-04T03:28:38.511Z,16.53
2022-10-04T03:31:27.349Z,16.54
2022-10-04T03:34:24.903Z,16.53
2022-10-04T03:37:18.887Z,16.54
2022-10-04T03:40:28.796Z,16.55
2022-10-04T03:43:43.174Z,16.57
2022-10-04T03:46:37.390Z,16.58
2022-10-04T03:49:37.273Z,16.59
2022-10-04T03:57:00.687Z,16.60
2022-10-04T03:59:42.722Z,16.60
2022-10-04T04:02:26.820Z,16.61
2022-10-04T04:05:16.572Z,16.61
2022-10-04T04:12:54.000Z,16.62
2022-10-04T04:15:38.118Z,16.62
2022-10-04T04:18:48.475Z,16.62
2022-10-04T04:25:47.982Z,16.62
2022-10-04T04:32:23.653Z,16.61
2022-10-04T04:35:18.279Z,16.60
2022-10-04T04:38:26.322Z,16.59
2022-10-04T04:41:14.516Z,16.58
2022-10-04T04:44:37.653Z,16.57
2022-10-04T04:47:50.167Z,16.58
2022-10-04T04:50:50.912Z,16.58
2022-10-04T04:53:43.139Z,16.58
2022-10-04T05:00:41.662Z,16.57
2022-10-04T05:04:03.011Z,16.58
2022-10-04T05:11:05.380Z,16.56
2022-10-04T05:13:56.512Z,16.55
2022-10-04T05:16:46.564Z,16.54
2022-10-04T05:19:16.718Z,16.52
2022-10-04T05:22:07.870Z,16.49
2022-10-04T05:24:51.852Z,16.43
2022-10-04T05:28:02.249Z,16.39
2022-10-04T05:30:39.354Z,16.36
2022-10-04T05:33:46.196Z,16.31
2022-10-04T05:36:50.634Z,16.27
2022-10-04T05:40:04.742Z,16.21
2022-10-04T05:42:37.241Z,16.17
2022-10-04T05:45:16.801Z,16.16
2022-10-04T05:48:14.118Z,16.15
2022-10-04T05:50:54.878Z,16.16
2022-10-04T05:54:04.692Z,16.14
2022-10-04T05:57:30.279Z,16.12
2022-10-04T06:00:43.338Z,16.13
2022-10-04T06:03:44.386Z,16.14
2022-10-04T06:06:19.485Z,16.17
2022-10-04T06:09:13.773Z,16.21
2022-10-04T06:12:05.964Z,16.25
2022-10-04T06:15:16.847Z,16.27
2022-10-04T06:18:35.877Z,16.30
2022-10-04T06:21:37.638Z,16.33
2022-10-04T06:24:39.522Z,16.35
2022-10-04T06:27:41.286Z,16.38
2022-10-04T06:30:14.603Z,16.39
2022-10-04T06:37:10.928Z,16.34
2022-10-04T06:40:37.408Z,16.30
2022-10-04T06:43:42.364Z,16.28
2022-10-04T06:46:16.980Z,16.26
2022-10-04T06:49:21.721Z,16.21
2022-10-04T06:52:00.738Z,16.19
2022-10-04T06:54:45.543Z,16.19
2022-10-04T06:57:25.510Z,16.21
2022-10-04T07:00:05.676Z,16.26
2022-10-04T07:02:35.867Z,16.31
2022-10-04T07:09:16.320Z,16.42
2022-10-04T07:12:00.157Z,16.45
2022-10-04T07:14:52.209Z,16.47
2022-10-04T07:17:27.955Z,16.49
2022-10-04T07:20:14.125Z,16.53
2022-10-04T07:22:49.794Z,16.57
2022-10-04T07:25:21.016Z,16.61
2022-10-04T07:28:23.004Z,16.65
2022-10-04T07:35:44.941Z,16.72
2022-10-04T07:38:20.309Z,16.75
2022-10-04T07:41:03.313Z,16.79
2022-10-04T07:43:32.601Z,16.85
2022-10-04T07:50:19.313Z,16.91
2022-10-04T07:52:54.205Z,16.91
2022-10-04T07:55:28.714Z,16.92
2022-10-04T07:58:09.150Z,16.98
2022-10-04T08:00:47.743Z,17.07
2022-10-04T08:03:31.882Z,17.16
2022-10-04T08:06:09.998Z,17.22
2022-10-04T08:09:24.372Z,17.27
2022-10-04T08:11:59.451Z,17.33
2022-10-04T08:14:39.039Z,17.38
2022-10-04T08:17:16.750Z,17.40
2022-10-04T08:19:50.900Z,17.40
2022-10-04T08:22:48.520Z,17.37
2022-10-04T08:25:37.489Z,17.35
2022-10-04T08:28:36.844Z,17.33
2022-10-04T08:31:15.502Z,17.33
2022-10-04T08:33:54.985Z,17.34
2022-10-04T08:36:28.945Z,17.34
2022-10-04T08:39:19.861Z,17.34
2022-10-04T08:42:09.636Z,17.34
2022-10-04T08:44:57.465Z,17.35
2022-10-04T08:48:05.337Z,17.39
2022-10-04T08:51:03.766Z,17.43
2022-10-04T08:53:50.513Z,17.48
2022-10-04T08:57:04.807Z,17.53
2022-10-04T08:59:50.501Z,17.59
2022-10-04T09:02:43.911Z,17.69
2022-10-04T09:05:24.019Z,17.78
2022-10-04T09:08:09.269Z,17.86
2022-10-04T09:11:29.412Z,17.97
2022-10-04T09:14:16.888Z,18.05
2022-10-04T09:17:22.353Z,18.11
2022-10-04T09:20:26.209Z,18.09
2022-10-04T09:23:00.803Z,18.05
2022-10-04T09:25:54.304Z,18.10
2022-10-04T09:29:08.593Z,18.28
2022-10-04T09:32:22.700Z,18.43
2022-10-04T09:35:13.567Z,18.40
2022-10-04T09:38:02.121Z,18.40
2022-10-04T09:41:29.251Z,18.42
2022-10-04T09:44:23.915Z,18.44
2022-10-04T09:47:37.686Z,18.58
2022-10-04T09:50:39.542Z,18.73
2022-10-04T09:53:36.317Z,18.74
2022-10-04T09:57:00.800Z,18.54
2022-10-04T09:59:56.619Z,18.34
2022-10-04T10:03:01.195Z,18.09
2022-10-04T10:05:59.893Z,17.93
2022-10-04T10:08:48.716Z,17.87
2022-10-04T10:11:58.834Z,17.82
2022-10-04T10:15:00.897Z,17.79
2022-10-04T10:17:50.702Z,17.82
2022-10-04T10:20:59.154Z,17.76
2022-10-04T10:24:00.407Z,17.63
2022-10-04T10:27:19.823Z,17.54
2022-10-04T10:30:02.976Z,17.45
2022-10-04T10:33:11.894Z,17.36
2022-10-04T10:35:50.707Z,17.23
2022-10-04T10:38:35.167Z,17.11
2022-10-04T10:41:35.283Z,17.02
2022-10-04T10:44:23.180Z,16.98
2022-10-04T10:47:28.977Z,16.94
2022-10-04T10:50:04.280Z,16.90
2022-10-04T10:53:17.670Z,16.91
2022-10-04T10:56:13.451Z,16.95
2022-10-04T10:59:20.196Z,16.95
2022-10-04T11:02:47.719Z,17.02
2022-10-04T11:05:37.437Z,17.20
2022-10-04T11:08:11.164Z,17.34
2022-10-04T11:11:08.052Z,17.48
2022-10-04T11:13:56.907Z,17.55
2022-10-04T11:16:48.900Z,17.60
2022-10-04T11:19:47.485Z,17.58
2022-10-04T11:27:05.528Z,17.54
2022-10-04T11:29:47.854Z,17.57
2022-10-04T11:32:41.364Z,17.64
2022-10-04T11:35:26.147Z,17.78
2022-10-04T11:38:02.293Z,17.94
2022-10-04T11:40:59.638Z,18.05
2022-10-04T11:43:49.996Z,18.11
2022-10-04T11:46:43.451Z,18.07
2022-10-04T11:49:47.503Z,18.00
2022-10-04T11:52:37.952Z,17.99
2022-10-04T11:55:25.852Z,17.99
2022-10-04T11:57:55.683Z,17.98
2022-10-04T12:04:53.221Z,18.12
2022-10-04T12:07:48.959Z,18.27
2022-10-04T12:10:34.308Z,18.43
2022-10-04T12:13:16.077Z,18.51
2022-10-04T12:16:05.355Z,18.60
2022-10-04T12:18:52.697Z,18.70
2022-10-04T12:21:46.101Z,18.75
2022-10-04T12:24:32.049Z,18.89
2022-10-04T12:27:24.318Z,18.99
2022-10-04T12:30:20.859Z,19.00
2022-10-04T12:33:04.551Z,19.03
2022-10-04T12:35:44.796Z,19.07
2022-10-04T12:38:36.848Z,19.26
2022-10-04T12:41:19.865Z,19.77
2022-10-04T12:43:56.153Z,20.17
2022-10-04T12:46:31.097Z,20.51
2022-10-04T12:49:15.429Z,20.68
2022-10-04T12:51:53.140Z,20.80
2022-10-04T12:54:41.173Z,21.30
2022-10-04T12:57:17.010Z,21.75
2022-10-04T13:00:00.342Z,21.56
2022-10-04T13:03:02.005Z,21.16
2022-10-04T13:05:47.934Z,20.71
2022-10-04T13:08:31.830Z,20.41
2022-10-04T13:11:09.972Z,20.25
2022-10-04T13:14:25.566Z,20.09
2022-10-04T13:19:55.551Z,19.62
2022-10-04T13:22:58.558Z,19.43
2022-10-04T13:25:58.848Z,19.30
2022-10-04T13:29:02.713Z,19.17
2022-10-04T13:31:38.590Z,19.09
2022-10-04T13:34:29.182Z,19.06
2022-10-04T13:37:14.430Z,19.04
2022-10-04T13:40:28.618Z,18.96
2022-10-04T13:43:39.405Z,18.87
2022-10-04T13:46:42.983Z,18.74
2022-10-04T13:49:27.259Z,18.63
2022-10-04T13:52:35.494Z,18.51
2022-10-04T13:55:50.713Z,18.41
2022-10-04T13:58:46.056Z,18.33
2022-10-04T14:02:00.473Z,18.28
2022-10-04T14:05:36.364Z,18.21
2022-10-04T14:08:34.240Z,18.20
2022-10-04T14:11:28.026Z,18.21
2022-10-04T14:14:17.769Z,18.18
2022-10-04T14:17:13.963Z,18.04
2022-10-04T14:20:16.531Z,17.91
2022-10-04T14:26:40.147Z,17.69
2022-10-04T14:30:09.456Z,17.69
2022-10-04T14:34:05.326Z,17.76
2022-10-04T14:37:47.350Z,17.77
2022-10-04T14:40:35.875Z,17.79
2022-10-04T14:43:20.657Z,17.81
2022-10-04T14:46:21.770Z,17.87
2022-10-04T14:49:19.988Z,17.91
2022-10-04T14:56:08.280Z,17.77
2022-10-04T14:59:41.332Z,17.71
2022-10-04T15:03:23.874Z,17.59
2022-10-04T15:06:21.735Z,17.58
2022-10-04T15:09:03.482Z,17.57
2022-10-04T15:12:25.602Z,17.52
2022-10-04T15:16:15.374Z,17.44
2022-10-04T15:20:07.846Z,17.39
2022-10-04T15:22:57.861Z,17.32
2022-10-04T15:26:10.467Z,17.24
2022-10-04T15:29:08.958Z,17.16
2022-10-04T15:37:13.277Z,16.87
2022-10-04T15:40:50.603Z,16.77
2022-10-04T15:51:15.111Z,16.58
2022-10-04T15:55:02.876Z,16.57
2022-10-04T15:57:57.832Z,16.55
2022-10-04T16:08:50.696Z,16.60
2022-10-04T16:16:17.996Z,16.62
2022-10-04T16:19:22.688Z,16.64
2022-10-04T16:21:53.004Z,16.66
2022-10-04T16:37:46.578Z,16.70
2022-10-04T16:44:58.918Z,16.62
2022-10-04T16:48:04.592Z,16.57
2022-10-04T16:51:04.358Z,16.53
2022-10-04T16:54:15.869Z,16.47
2022-10-04T16:57:31.688Z,16.42
2022-10-04T17:00:20.113Z,16.39
2022-10-04T17:03:26.655Z,16.37
2022-10-04T17:06:12.130Z,16.33
2022-10-04T17:09:08.000Z,16.27
2022-10-04T17:12:00.755Z,16.23
2022-10-04T17:14:42.442Z,16.21
2022-10-04T17:17:22.442Z,16.16
2022-10-04T17:20:02.073Z,16.10
2022-10-04T17:23:17.816Z,16.03
2022-10-04T17:26:05.886Z,16.00
2022-10-04T17:29:17.780Z,15.97
2022-10-04T17:31:55.639Z,15.95
2022-10-04T17:34:51.739Z,15.94
2022-10-04T17:37:56.210Z,15.90
2022-10-04T17:40:49.154Z,15.83
2022-10-04T17:43:20.757Z,15.78
2022-10-04T17:46:29.491Z,15.71
2022-10-04T17:49:43.275Z,15.63
2022-10-04T17:53:00.023Z,15.52
2022-10-04T17:55:35.271Z,15.43
2022-10-04T17:58:40.771Z,15.32
2022-10-04T18:01:53.271Z,15.24
2022-10-04T18:04:46.172Z,15.18
2022-10-04T18:07:39.271Z,15.11
2022-10-04T18:10:50.554Z,15.06
2022-10-04T18:13:55.894Z,15.00
2022-10-04T18:16:44.303Z,14.97
2022-10-04T18:19:45.053Z,14.93
2022-10-04T18:22:17.411Z,14.89
2022-10-04T18:25:12.165Z,14.85
2022-10-04T18:27:49.462Z,14.82
2022-10-04T18:30:58.529Z,14.79
2022-10-04T18:33:31.439Z,14.75
2022-10-04T18:36:31.452Z,14.73
2022-10-04T18:39:57.489Z,14.71
2022-10-04T18:42:56.828Z,14.69
2022-10-04T18:46:14.225Z,14.67
2022-10-04T18:49:12.913Z,14.64
2022-10-04T18:52:08.000Z,14.63
2022-10-04T18:55:12.248Z,14.62
2022-10-04T18:58:37.656Z,14.62
2022-10-04T19:02:00.533Z,14.62
2022-10-04T19:05:07.006Z,14.63
2022-10-04T19:07:59.832Z,14.64
2022-10-04T19:10:52.204Z,14.64
2022-10-04T19:13:29.634Z,14.66
2022-10-04T19:16:14.957Z,14.70
2022-10-04T19:19:12.999Z,14.73
2022-10-04T19:22:18.467Z,14.74
2022-10-04T19:25:25.429Z,14.75
2022-10-04T19:28:37.849Z,14.76
2022-10-04T19:31:19.069Z,14.76
2022-10-04T19:34:32.050Z,14.75
2022-10-04T19:37:38.439Z,14.74
2022-10-04T19:40:40.504Z,14.73
2022-10-04T19:43:25.053Z,14.72
2022-10-04T19:46:15.148Z,14.72
2022-10-04T19:49:00.919Z,14.72
2022-10-04T19:52:22.487Z,14.71
2022-10-04T19:55:04.353Z,14.71
2022-10-04T19:57:56.692Z,14.72
2022-10-04T20:00:40.090Z,14.74
2022-10-04T20:03:34.962Z,14.77
2022-10-04T20:06:55.704Z,14.80
2022-10-04T20:10:24.116Z,14.84
2022-10-04T20:13:27.287Z,14.88
2022-10-04T20:16:00.670Z,14.90
2022-10-04T20:19:19.460Z,14.91
2022-10-04T20:22:19.720Z,14.92
2022-10-04T20:24:58.048Z,14.93
2022-10-04T20:28:03.301Z,14.93
2022-10-04T20:31:28.435Z,14.94
2022-10-04T20:34:49.220Z,14.95
2022-10-04T20:42:22.921Z,14.96
2022-10-04T20:45:23.115Z,14.96
2022-10-04T20:48:27.389Z,14.96
2022-10-04T20:51:37.566Z,14.96
2022-10-04T20:54:23.709Z,14.96
2022-10-04T20:57:51.252Z,14.97
2022-10-04T21:00:56.960Z,14.98
2022-10-04T21:04:13.000Z,14.99
2022-10-04T21:07:46.672Z,14.98
2022-10-04T21:11:18.305Z,15.00
2022-10-04T21:14:37.668Z,15.01
2022-10-04T21:17:45.625Z,15.02
2022-10-04T21:20:55.070Z,15.04
2022-10-04T21:24:19.206Z,15.06
2022-10-04T21:27:13.266Z,15.08
2022-10-04T21:30:24.703Z,15.10
2022-10-04T21:33:34.453Z,15.10
2022-10-04T21:36:23.436Z,15.12
2022-10-04T21:39:32.549Z,15.13
2022-10-04T21:42:39.105Z,15.13
2022-10-04T21:45:32.892Z,15.14
2022-10-04T21:48:41.691Z,15.14
2022-10-04T21:51:32.599Z,15.15
2022-10-04T21:54:41.450Z,15.16
2022-10-04T21:57:52.015Z,15.16
2022-10-04T22:01:00.383Z,15.16
2022-10-04T22:03:57.291Z,15.16
2022-10-04T22:06:48.839Z,15.16
2022-10-04T22:09:37.413Z,15.16
2022-10-04T22:13:03.427Z,15.17
2022-10-04T22:16:34.743Z,15.18
2022-10-04T22:19:42.894Z,15.19
2022-10-04T22:22:43.612Z,15.21
2022-10-04T22:25:27.194Z,15.22
2022-10-04T22:32:38.029Z,15.26
2022-10-04T22:35:20.312Z,15.27
2022-10-04T22:42:17.674Z,15.28
2022-10-04T22:49:31.340Z,15.23
2022-10-04T22:52:37.872Z,15.21
2022-10-04T22:56:04.850Z,15.17
2022-10-04T22:58:52.340Z,15.15
2022-10-04T23:02:05.620Z,15.13
2022-10-04T23:05:14.568Z,15.10
2022-10-04T23:08:02.698Z,15.07
2022-10-04T23:11:31.392Z,15.06
2022-10-04T23:14:40.386Z,15.05
2022-10-04T23:17:45.460Z,15.04
2022-10-04T23:20:35.166Z,15.04
2022-10-04T23:23:11.572Z,15.05
2022-10-04T23:26:23.658Z,15.08
2022-10-04T23:28:51.962Z,15.10
2022-10-04T23:31:22.853Z,15.11
2022-10-04T23:34:13.536Z,15.13
2022-10-04T23:36:41.399Z,15.11
2022-10-04T23:39:31.409Z,15.09
2022-10-04T23:42:29.825Z,15.10
2022-10-04T23:45:27.514Z,15.08
2022-10-04T23:48:37.012Z,15.08
2022-10-04T23:51:43.603Z,15.08
2022-10-04T23:54:50.886Z,15.07
2022-10-04T23:57:49.349Z,15.08
